Time;durP1;ratioP1;P1;durP2;ratioP2;P2;SDS_P1;SDS_P2;PMS_P1;PMS_P2;Temp;Humidity;BMP_temperature;BMP_pressure;BME280_temperature;BME280_humidity;BME280_pressure;Samples;Min_cycle;Max_cycle;Signal;HPM_P1;HPM_P2
2023/06/29 00:00:26;;;;;;;19.67;15.05;;;;;;;-147.65;100.00;57646.63;10432797;28;20044;-88
2023/06/29 00:05:27;;;;;;;27.27;18.05;;;;;;;-147.65;100.00;57646.63;10440393;28;20381;-88
2023/06/29 00:10:28;;;;;;;25.75;18.05;;;;;;;-147.65;100.00;57646.63;10438413;28;20040;-88
2023/06/29 00:15:29;;;;;;;24.75;19.05;;;;;;;-147.65;100.00;57646.63;10408238;28;20037;-87
2023/06/29 00:20:30;;;;;;;27.75;17.30;;;;;;;-147.65;100.00;57646.63;10404210;28;20041;-88
2023/06/29 00:25:32;;;;;;;29.17;19.77;;;;;;;-147.65;100.00;57646.63;10435547;28;20176;-87
2023/06/29 00:30:32;;;;;;;27.42;19.98;;;;;;;-147.65;100.00;57646.63;10412390;28;20396;-89
2023/06/29 00:35:33;;;;;;;24.02;17.75;;;;;;;-147.65;100.00;57646.63;10408983;28;20070;-88
2023/06/29 00:40:33;;;;;;;28.63;19.50;;;;;;;-147.65;100.00;57646.63;10392500;28;20117;-85
2023/06/29 00:45:34;;;;;;;29.13;19.77;;;;;;;-147.65;100.00;57646.63;10369391;28;20782;-82
2023/06/29 00:50:34;;;;;;;42.65;22.23;;;;;;;-147.65;100.00;57646.63;10403538;28;20045;-86
2023/06/29 00:55:36;;;;;;;42.33;23.83;;;;;;;-147.65;100.00;57646.63;10344905;28;20129;-87
2023/06/29 01:00:37;;;;;;;27.38;20.27;;;;;;;-147.65;100.00;57646.63;10394503;28;20093;-87
2023/06/29 01:05:37;;;;;;;27.27;20.73;;;;;;;-147.65;100.00;57646.63;10425042;28;20067;-86
2023/06/29 01:10:38;;;;;;;25.98;19.20;;;;;;;-147.65;100.00;57646.63;10374101;28;20045;-84
2023/06/29 01:15:40;;;;;;;25.25;18.25;;;;;;;-147.65;100.00;57646.63;10416385;28;20076;-89
2023/06/29 01:20:41;;;;;;;32.20;20.10;;;;;;;-147.65;100.00;57646.63;10381873;28;20092;-88
2023/06/29 01:25:41;;;;;;;27.73;20.42;;;;;;;-147.65;100.00;57646.63;10430678;28;20120;-85
2023/06/29 01:30:49;;;;;;;28.40;21.20;;;;;;;-147.65;100.00;57646.63;10384311;28;20060;-89
2023/06/29 01:35:52;;;;;;;30.30;20.70;;;;;;;-147.65;100.00;57646.63;10370159;28;20532;-89
2023/06/29 01:40:53;;;;;;;26.75;21.17;;;;;;;-147.65;100.00;57646.63;10354743;28;20478;-90
2023/06/29 01:45:53;;;;;;;24.08;18.33;;;;;;;-147.65;100.00;57646.63;10401156;28;20077;-89
2023/06/29 01:50:54;;;;;;;29.63;21.38;;;;;;;-147.65;100.00;57646.63;10394690;28;20049;-89
2023/06/29 01:55:54;;;;;;;28.35;20.88;;;;;;;-147.65;100.00;57646.63;10394532;28;20160;-90
2023/06/29 02:00:55;;;;;;;26.27;19.60;;;;;;;-147.65;100.00;57646.63;10400453;28;20041;-89
2023/06/29 02:05:55;;;;;;;34.67;19.92;;;;;;;-147.65;100.00;57646.63;10408682;28;20049;-88
2023/06/29 02:10:56;;;;;;;28.90;21.92;;;;;;;-147.65;100.00;57646.63;10401726;28;20374;-82
2023/06/29 02:15:56;;;;;;;28.65;22.73;;;;;;;-147.65;100.00;57646.63;10386084;28;20045;-87
2023/06/29 02:20:57;;;;;;;29.20;21.92;;;;;;;-147.65;100.00;57646.63;10413455;28;20034;-88
2023/06/29 02:25:58;;;;;;;29.65;21.63;;;;;;;-147.65;100.00;57646.63;10408955;28;20537;-87
2023/06/29 02:30:58;;;;;;;27.27;21.55;;;;;;;-147.65;100.00;57646.63;10418750;28;20112;-87
2023/06/29 02:35:59;;;;;;;34.88;21.52;;;;;;;-147.65;100.00;57646.63;10399061;28;20042;-87
2023/06/29 02:40:59;;;;;;;29.90;20.90;;;;;;;-147.65;100.00;57646.63;10389892;28;20029;-87
2023/06/29 02:46:00;;;;;;;36.60;23.85;;;;;;;-147.65;100.00;57646.63;10398943;28;20072;-88
2023/06/29 02:51:00;;;;;;;32.80;21.67;;;;;;;-147.65;100.00;57646.63;10398946;28;20604;-88
2023/06/29 02:56:01;;;;;;;29.17;21.70;;;;;;;-147.65;100.00;57646.63;10397925;28;20450;-88
2023/06/29 03:01:01;;;;;;;28.20;20.75;;;;;;;-147.65;100.00;57646.63;10401083;28;20137;-89
2023/06/29 03:06:02;;;;;;;37.55;23.33;;;;;;;-147.65;100.00;57646.63;10398540;28;20400;-88
2023/06/29 03:11:02;;;;;;;28.80;22.15;;;;;;;-147.65;100.00;57646.63;10380982;28;20046;-88
2023/06/29 03:16:03;;;;;;;52.22;22.75;;;;;;;-147.65;100.00;57646.63;10423437;28;20043;-88
2023/06/29 03:21:04;;;;;;;33.60;22.60;;;;;;;-147.65;100.00;57646.63;10397649;28;20090;-88
2023/06/29 03:26:04;;;;;;;28.92;21.27;;;;;;;-147.65;100.00;57646.63;10417546;28;20058;-88
2023/06/29 03:31:05;;;;;;;30.83;20.88;;;;;;;-147.65;100.00;57646.63;10412668;28;20063;-87
2023/06/29 03:36:09;;;;;;;30.65;23.38;;;;;;;-147.65;100.00;57646.63;10417606;28;20134;-82
2023/06/29 03:41:09;;;;;;;33.38;22.83;;;;;;;-147.65;100.00;57646.63;10429961;28;20041;-88
2023/06/29 03:46:10;;;;;;;30.67;21.00;;;;;;;-147.65;100.00;57646.63;10421541;28;20092;-88
2023/06/29 03:51:10;;;;;;;37.83;22.98;;;;;;;-147.65;100.00;57646.63;10434807;28;20048;-87
2023/06/29 03:56:11;;;;;;;30.15;23.90;;;;;;;-147.65;100.00;57646.63;10434337;28;20045;-88
2023/06/29 04:01:11;;;;;;;32.08;23.48;;;;;;;-147.65;100.00;57646.63;10417437;28;20038;-84
2023/06/29 04:06:12;;;;;;;32.20;22.23;;;;;;;-147.65;100.00;57646.63;10424550;28;20119;-88
2023/06/29 04:11:13;;;;;;;31.48;23.20;;;;;;;-147.65;100.00;57646.63;10411535;28;20124;-89
2023/06/29 04:16:13;;;;;;;29.83;20.67;;;;;;;-147.65;100.00;57646.63;10438174;28;20057;-89
2023/06/29 04:21:14;;;;;;;33.47;22.30;;;;;;;-147.65;100.00;57646.63;10436850;28;20083;-90
2023/06/29 04:26:15;;;;;;;31.42;20.25;;;;;;;-147.65;100.00;57646.63;10429372;28;20060;-86
2023/06/29 04:31:15;;;;;;;30.45;24.30;;;;;;;-147.65;100.00;57646.63;10407434;28;20118;-86
2023/06/29 04:36:17;;;;;;;31.50;22.15;;;;;;;-147.65;100.00;57646.63;10410266;28;20555;-87
2023/06/29 04:41:17;;;;;;;29.60;23.27;;;;;;;-147.65;100.00;57646.63;10398566;28;20041;-83
2023/06/29 04:46:18;;;;;;;40.25;22.45;;;;;;;-147.65;100.00;57646.63;10399388;28;20041;-82
2023/06/29 04:51:19;;;;;;;27.10;20.58;;;;;;;-147.65;100.00;57646.63;10429622;28;20048;-82
2023/06/29 04:56:19;;;;;;;29.38;21.50;;;;;;;-147.65;100.00;57646.63;10425225;28;20037;-83
2023/06/29 05:01:20;;;;;;;34.22;20.98;;;;;;;-147.65;100.00;57646.63;10402329;28;20183;-84
2023/06/29 05:06:20;;;;;;;32.05;21.23;;;;;;;-147.65;100.00;57646.63;10399170;28;20064;-84
2023/06/29 05:11:21;;;;;;;47.20;26.67;;;;;;;-147.65;100.00;57646.63;10430040;28;20068;-89
2023/06/29 05:16:21;;;;;;;30.55;20.73;;;;;;;-147.65;100.00;57646.63;10433971;28;20053;-81
2023/06/29 05:21:22;;;;;;;26.65;19.35;;;;;;;-147.65;100.00;57646.63;10401751;28;20042;-81
2023/06/29 05:26:23;;;;;;;30.52;22.60;;;;;;;-147.65;100.00;57646.63;10402192;28;20136;-81
2023/06/29 05:31:23;;;;;;;28.33;19.80;;;;;;;-147.65;100.00;57646.63;10415659;28;20044;-84
2023/06/29 05:36:24;;;;;;;42.00;27.70;;;;;;;-147.65;100.00;57646.63;10400406;28;20121;-85
2023/06/29 05:41:24;;;;;;;31.92;23.25;;;;;;;-147.65;100.00;57646.63;10424671;28;20045;-84
2023/06/29 05:46:25;;;;;;;25.95;20.52;;;;;;;-147.65;100.00;57646.63;10423117;28;20056;-83
2023/06/29 05:51:26;;;;;;;29.52;21.08;;;;;;;-147.65;100.00;57646.63;10401001;28;20453;-84
2023/06/29 05:56:26;;;;;;;26.35;19.73;;;;;;;-147.65;100.00;57646.63;10380211;28;20073;-84
2023/06/29 06:01:27;;;;;;;27.80;20.35;;;;;;;-147.65;100.00;57646.63;10408669;28;20108;-84
2023/06/29 06:06:30;;;;;;;33.05;21.48;;;;;;;-147.65;100.00;57646.63;10396123;28;20043;-84
2023/06/29 06:11:31;;;;;;;29.17;20.23;;;;;;;-147.65;100.00;57646.63;10390486;28;20040;-81
2023/06/29 06:16:31;;;;;;;34.63;23.88;;;;;;;-147.65;100.00;57646.63;10397128;28;20049;-83
2023/06/29 06:21:32;;;;;;;28.95;19.42;;;;;;;-147.65;100.00;57646.63;10402215;28;20077;-82
2023/06/29 06:26:32;;;;;;;37.47;21.13;;;;;;;-147.65;100.00;57646.63;10389656;28;20037;-85
2023/06/29 06:31:33;;;;;;;29.27;20.63;;;;;;;-147.65;100.00;57646.63;10376332;28;20044;-81
2023/06/29 06:36:34;;;;;;;31.90;19.67;;;;;;;-147.65;100.00;57646.63;10355364;28;20518;-80
2023/06/29 06:41:34;;;;;;;34.63;21.50;;;;;;;-147.65;100.00;57646.63;10358091;28;20038;-80
2023/06/29 06:46:35;;;;;;;29.02;19.23;;;;;;;-147.65;100.00;57646.63;10342276;28;20132;-80
2023/06/29 06:51:35;;;;;;;32.58;20.90;;;;;;;-147.65;100.00;57646.63;10394453;28;20512;-82
2023/06/29 06:56:37;;;;;;;36.08;22.73;;;;;;;-147.65;100.00;57646.63;10410428;28;20041;-85
2023/06/29 07:01:41;;;;;;;34.95;21.50;;;;;;;-147.65;100.00;57646.63;10397543;28;20068;-84
2023/06/29 07:06:41;;;;;;;33.10;22.38;;;;;;;-147.65;100.00;57646.63;10400016;28;20137;-85
2023/06/29 07:11:42;;;;;;;43.87;32.03;;;;;;;-147.65;100.00;57646.63;10384097;28;20074;-85
2023/06/29 07:16:42;;;;;;;39.90;25.47;;;;;;;-147.65;100.00;57646.63;10404868;28;20037;-83
2023/06/29 07:21:43;;;;;;;27.00;20.10;;;;;;;-147.65;100.00;57646.63;10396528;28;20056;-84
2023/06/29 07:26:43;;;;;;;26.43;19.77;;;;;;;-147.65;100.00;57646.63;10415224;28;20117;-84
2023/06/29 07:31:44;;;;;;;27.73;18.70;;;;;;;-147.65;100.00;57646.63;10392585;28;20128;-82
2023/06/29 07:36:45;;;;;;;30.97;21.13;;;;;;;-147.65;100.00;57646.63;10416137;28;20527;-84
2023/06/29 07:41:45;;;;;;;31.40;16.90;;;;;;;-147.65;100.00;57646.63;10411472;28;20026;-86
2023/06/29 07:46:46;;;;;;;29.17;19.97;;;;;;;-147.65;100.00;57646.63;10393095;28;20061;-83
2023/06/29 07:51:46;;;;;;;32.27;19.53;;;;;;;-147.65;100.00;57646.63;10385746;28;20180;-79
2023/06/29 07:56:47;;;;;;;27.50;20.13;;;;;;;-147.65;100.00;57646.63;10341681;28;20757;-86
2023/06/29 08:01:48;;;;;;;37.53;17.70;;;;;;;-147.65;100.00;57646.63;10388309;28;20112;-89
2023/06/29 08:06:49;;;;;;;27.48;18.92;;;;;;;-147.65;100.00;57646.63;10386155;28;20497;-87
2023/06/29 08:11:49;;;;;;;31.53;20.77;;;;;;;-147.65;100.00;57646.63;10400691;28;20045;-87
2023/06/29 08:16:50;;;;;;;27.47;17.00;;;;;;;-147.65;100.00;57646.63;10402569;28;20428;-88
2023/06/29 08:21:55;;;;;;;35.80;21.20;;;;;;;-147.65;100.00;57646.63;10399584;28;20056;-88
2023/06/29 08:26:55;;;;;;;28.05;19.77;;;;;;;-147.65;100.00;57646.63;10387249;28;20371;-89
2023/06/29 08:31:56;;;;;;;26.93;18.93;;;;;;;-147.65;100.00;57646.63;10389559;28;20038;-86
2023/06/29 08:36:56;;;;;;;27.00;15.40;;;;;;;-147.65;100.00;57646.63;10371815;28;20100;-87
2023/06/29 08:41:57;;;;;;;24.50;15.63;;;;;;;-147.65;100.00;57646.63;10366338;28;20041;-85
2023/06/29 08:46:59;;;;;;;29.10;16.40;;;;;;;-147.65;100.00;57646.63;10377853;28;20420;-85
2023/06/29 08:51:59;;;;;;;23.10;15.68;;;;;;;-147.65;100.00;57646.63;10400320;28;20052;-84
2023/06/29 08:57:00;;;;;;;21.37;13.93;;;;;;;-147.65;100.00;57646.63;10402391;28;20044;-84
2023/06/29 09:02:01;;;;;;;20.87;15.17;;;;;;;-147.65;100.00;57646.63;10402825;28;20041;-85
2023/06/29 09:07:03;;;;;;;22.77;14.90;;;;;;;-147.65;100.00;57646.63;10399879;28;20048;-84
2023/06/29 09:12:04;;;;;;;24.60;15.50;;;;;;;-147.65;100.00;57646.63;10402639;28;20120;-85
2023/06/29 09:17:16;;;;;;;21.92;15.48;;;;;;;-147.65;100.00;57646.63;10441160;28;20741;-85
2023/06/29 09:22:18;;;;;;;23.80;15.98;;;;;;;-147.65;100.00;57646.63;10439760;28;20519;-84
2023/06/29 09:27:19;;;;;;;23.42;16.45;;;;;;;-147.65;100.00;57646.63;10397870;28;20043;-84
2023/06/29 09:32:20;;;;;;;24.33;18.47;;;;;;;-147.65;100.00;57646.63;10401810;28;20515;-82
2023/06/29 09:37:20;;;;;;;22.83;15.97;;;;;;;-147.65;100.00;57646.63;10424720;28;20506;-81
2023/06/29 09:42:21;;;;;;;30.47;16.57;;;;;;;-147.65;100.00;57646.63;10399454;28;20042;-84
2023/06/29 09:47:23;;;;;;;22.40;14.43;;;;;;;-147.65;100.00;57646.63;10382193;28;20185;-82
2023/06/29 09:52:24;;;;;;;22.85;14.63;;;;;;;-147.65;100.00;57646.63;10399400;28;20044;-84
2023/06/29 09:57:26;;;;;;;22.63;16.23;;;;;;;-147.65;100.00;57646.63;10418952;28;20068;-84
2023/06/29 10:02:26;;;;;;;26.58;18.13;;;;;;;-147.65;100.00;57646.63;10411399;28;20046;-82
2023/06/29 10:07:27;;;;;;;22.17;13.77;;;;;;;-147.65;100.00;57646.63;10412150;28;20041;-85
2023/06/29 10:12:27;;;;;;;19.90;12.70;;;;;;;-147.65;100.00;57646.63;10435936;28;20070;-83
2023/06/29 10:17:59;;;;;;;19.70;12.23;;;;;;;-147.65;100.00;57646.63;10397826;28;20553;-85
2023/06/29 10:23:00;;;;;;;;;;;;;;;-147.65;100.00;57646.63;10377152;28;20046;-85
2023/06/29 10:28:01;;;;;;;15.82;12.18;;;;;;;-147.65;100.00;57646.63;10389226;28;19971;-86
2023/06/29 10:33:01;;;;;;;24.77;12.20;;;;;;;-147.65;100.00;57646.63;10396014;28;20165;-93
2023/06/29 10:38:08;;;;;;;18.53;12.87;;;;;;;-147.65;100.00;57646.63;10381668;28;20042;-90
2023/06/29 10:43:08;;;;;;;22.35;13.50;;;;;;;-147.65;100.00;57646.63;10366644;28;20038;-92
2023/06/29 10:48:12;;;;;;;18.97;12.37;;;;;;;-147.65;100.00;57646.63;10392337;28;20540;-93
2023/06/29 10:53:14;;;;;;;21.58;14.60;;;;;;;-147.65;100.00;57646.63;10389369;28;20469;-91
2023/06/29 10:58:21;;;;;;;21.65;15.18;;;;;;;-147.65;100.00;57646.63;10406986;28;20042;-91
2023/06/29 11:03:22;;;;;;;22.95;15.13;;;;;;;-147.65;100.00;57646.63;10366955;28;20137;-85
2023/06/29 11:08:23;;;;;;;24.00;15.70;;;;;;;-147.65;100.00;57646.63;10364550;28;20114;-85
2023/06/29 11:13:24;;;;;;;20.00;12.97;;;;;;;-147.65;100.00;57646.63;10365607;28;20502;-84
2023/06/29 11:18:30;;;;;;;19.57;13.17;;;;;;;-147.65;100.00;57646.63;10364332;28;20125;-85
2023/06/29 11:23:30;;;;;;;22.77;14.40;;;;;;;-147.65;100.00;57646.63;10363400;28;20041;-85
2023/06/29 11:28:32;;;;;;;23.37;15.70;;;;;;;-147.65;100.00;57646.63;10375534;28;20042;-86
2023/06/29 11:33:32;;;;;;;25.17;17.15;;;;;;;-147.65;100.00;57646.63;10435304;28;20044;-85
2023/06/29 11:38:33;;;;;;;25.27;15.20;;;;;;;-147.65;100.00;57646.63;10442305;28;20037;-86
2023/06/29 11:43:34;;;;;;;24.63;14.17;;;;;;;-147.65;100.00;57646.63;10402523;28;20057;-86
2023/06/29 11:48:35;;;;;;;23.17;15.10;;;;;;;-147.65;100.00;57646.63;10402937;28;20075;-85
2023/06/29 11:53:35;;;;;;;25.88;16.10;;;;;;;-147.65;100.00;57646.63;10403034;28;20034;-87
2023/06/29 11:58:36;;;;;;;24.57;15.67;;;;;;;-147.65;100.00;57646.63;10403295;28;20500;-81
2023/06/29 12:03:38;;;;;;;25.30;16.13;;;;;;;-147.65;100.00;57646.63;10404202;28;20032;-85
2023/06/29 12:08:40;;;;;;;24.77;16.98;;;;;;;-147.65;100.00;57646.63;10401340;28;20456;-83
2023/06/29 12:13:49;;;;;;;28.38;18.40;;;;;;;-147.65;100.00;57646.63;10406463;28;20037;-81
2023/06/29 12:18:49;;;;;;;22.67;14.73;;;;;;;-147.65;100.00;57646.63;10427266;28;20132;-83
2023/06/29 12:23:50;;;;;;;25.23;16.37;;;;;;;-147.65;100.00;57646.63;10356745;28;1203542;-82
2023/06/29 12:28:51;;;;;;;21.00;15.10;;;;;;;-147.65;100.00;57646.63;10413707;28;20033;-82
2023/06/29 12:33:53;;;;;;;23.30;15.53;;;;;;;-147.65;100.00;57646.63;10401294;28;20076;-81
2023/06/29 12:38:54;;;;;;;21.90;15.18;;;;;;;-147.65;100.00;57646.63;10429281;28;20045;-80
2023/06/29 12:43:54;;;;;;;23.85;15.63;;;;;;;-147.65;100.00;57646.63;10403382;28;20038;-80
2023/06/29 12:48:55;;;;;;;26.20;17.33;;;;;;;-147.65;100.00;57646.63;10401965;28;20442;-79
2023/06/29 12:53:55;;;;;;;30.43;17.13;;;;;;;-147.65;100.00;57646.63;10401499;28;20124;-84
2023/06/29 12:58:56;;;;;;;21.90;15.67;;;;;;;-147.65;100.00;57646.63;10401248;28;20114;-82
2023/06/29 13:03:56;;;;;;;27.23;19.80;;;;;;;-147.65;100.00;57646.63;10407597;28;20108;-82
2023/06/29 13:08:57;;;;;;;29.20;18.93;;;;;;;-147.65;100.00;57646.63;10388964;28;20396;-81
2023/06/29 13:13:58;;;;;;;29.33;19.10;;;;;;;-147.65;100.00;57646.63;10400713;28;20034;-82
2023/06/29 13:18:58;;;;;;;24.80;17.53;;;;;;;-147.65;100.00;57646.63;10386039;28;20105;-84
2023/06/29 13:23:59;;;;;;;38.67;21.10;;;;;;;-147.65;100.00;57646.63;10428685;28;20037;-83
2023/06/29 13:29:00;;;;;;;33.77;25.40;;;;;;;-147.65;100.00;57646.63;10412626;28;20083;-87
2023/06/29 13:34:00;;;;;;;38.30;22.60;;;;;;;-147.65;100.00;57646.63;10418321;28;20045;-81
2023/06/29 13:39:01;;;;;;;29.00;20.50;;;;;;;-147.65;100.00;57646.63;10414367;28;20037;-81
2023/06/29 13:44:05;;;;;;;32.40;21.53;;;;;;;-147.65;100.00;57646.63;10432150;28;20041;-82
2023/06/29 13:49:06;;;;;;;32.42;20.08;;;;;;;-147.65;100.00;57646.63;10436822;28;20109;-81
2023/06/29 13:54:07;;;;;;;30.75;19.95;;;;;;;-147.65;100.00;57646.63;10370855;28;20483;-84
2023/06/29 13:59:08;;;;;;;33.73;22.90;;;;;;;-147.65;100.00;57646.63;10321338;28;20081;-82
2023/06/29 14:04:09;;;;;;;30.87;22.10;;;;;;;-147.65;100.00;57646.63;10391987;28;20052;-88
2023/06/29 14:09:10;;;;;;;33.10;21.23;;;;;;;-147.65;100.00;57646.63;10355112;28;20132;-94
2023/06/29 14:14:11;;;;;;;30.90;21.40;;;;;;;-147.65;100.00;57646.63;10354452;28;20056;-93
2023/06/29 14:19:11;;;;;;;54.25;33.70;;;;;;;-147.65;100.00;57646.63;10399823;28;20149;-90
2023/06/29 14:24:12;;;;;;;46.83;27.10;;;;;;;-147.65;100.00;57646.63;10380209;28;20120;-91
2023/06/29 14:29:13;;;;;;;37.92;23.77;;;;;;;-147.65;100.00;57646.63;10399531;28;20703;-93
2023/06/29 14:34:14;;;;;;;29.95;19.40;;;;;;;-147.65;100.00;57646.63;10378863;28;20125;-86
2023/06/29 14:39:14;;;;;;;40.50;23.27;;;;;;;-147.65;100.00;57646.63;10396588;28;20162;-88
2023/06/29 14:44:15;;;;;;;35.60;21.10;;;;;;;-147.65;100.00;57646.63;10399345;28;20064;-85
2023/06/29 14:49:16;;;;;;;72.07;48.13;;;;;;;-147.65;100.00;57646.63;10395109;28;20049;-83
2023/06/29 14:54:18;;;;;;;42.10;23.90;;;;;;;-147.65;100.00;57646.63;10381011;28;20061;-82
2023/06/29 14:59:18;;;;;;;32.25;22.08;;;;;;;-147.65;100.00;57646.63;10397991;28;20132;-83
2023/06/29 15:04:19;;;;;;;28.10;19.43;;;;;;;-147.65;100.00;57646.63;10399192;28;20044;-82
2023/06/29 15:09:19;;;;;;;27.50;20.87;;;;;;;-147.65;100.00;57646.63;10396811;28;20120;-83
2023/06/29 15:14:20;;;;;;;30.73;20.63;;;;;;;-147.65;100.00;57646.63;10428453;28;20050;-83
2023/06/29 15:19:21;;;;;;;33.13;22.50;;;;;;;-147.65;100.00;57646.63;10402244;28;20045;-83
2023/06/29 15:24:21;;;;;;;32.80;22.23;;;;;;;-147.65;100.00;57646.63;10399546;28;20069;-82
2023/06/29 15:29:22;;;;;;;32.67;22.23;;;;;;;-147.65;100.00;57646.63;10356964;28;20045;-83
2023/06/29 15:34:23;;;;;;;31.17;22.15;;;;;;;-147.65;100.00;57646.63;10339447;28;20117;-82
2023/06/29 15:39:23;;;;;;;35.43;23.33;;;;;;;-147.65;100.00;57646.63;10354543;28;20116;-80
2023/06/29 15:44:24;;;;;;;35.80;24.63;;;;;;;-147.65;100.00;57646.63;10376284;28;20144;-83
2023/06/29 15:49:24;;;;;;;40.70;26.03;;;;;;;-147.65;100.00;57646.63;10351495;28;20136;-85
2023/06/29 15:54:25;;;;;;;31.10;23.13;;;;;;;-147.65;100.00;57646.63;10358134;28;20093;-85
2023/06/29 15:59:25;;;;;;;36.20;25.77;;;;;;;-147.65;100.00;57646.63;10396985;28;20046;-85
2023/06/29 16:04:26;;;;;;;41.33;25.20;;;;;;;-147.65;100.00;57646.63;10426028;28;20056;-83
2023/06/29 16:09:30;;;;;;;39.97;26.30;;;;;;;-147.65;100.00;57646.63;10403145;28;20079;-82
2023/06/29 16:14:32;;;;;;;40.85;29.58;;;;;;;-147.65;100.00;57646.63;10402341;28;20042;-86
2023/06/29 16:19:32;;;;;;;47.97;30.67;;;;;;;-147.65;100.00;57646.63;10434282;28;20448;-85
2023/06/29 16:24:33;;;;;;;51.05;30.85;;;;;;;-147.65;100.00;57646.63;10399219;28;20036;-84
2023/06/29 16:29:33;;;;;;;51.17;31.10;;;;;;;-147.65;100.00;57646.63;10409571;28;20045;-85
2023/06/29 16:34:34;;;;;;;48.90;33.80;;;;;;;-147.65;100.00;57646.63;10392787;28;20041;-84
2023/06/29 16:39:34;;;;;;;43.08;30.52;;;;;;;-147.65;100.00;57646.63;10417725;28;20037;-83
2023/06/29 16:44:35;;;;;;;49.78;31.20;;;;;;;-147.65;100.00;57646.63;10406753;28;20401;-83
2023/06/29 16:49:37;;;;;;;43.85;29.23;;;;;;;-147.65;100.00;57646.63;10375077;28;20049;-83
2023/06/29 16:54:38;;;;;;;46.25;30.15;;;;;;;-147.65;100.00;57646.63;10360623;28;20514;-87
2023/06/29 16:59:39;;;;;;;46.28;31.30;;;;;;;-147.65;100.00;57646.63;10359546;28;20046;-86
2023/06/29 17:04:39;;;;;;;46.13;30.40;;;;;;;-147.65;100.00;57646.63;10351239;28;20084;-87
2023/06/29 17:09:40;;;;;;;50.65;31.27;;;;;;;-147.65;100.00;57646.63;10388599;28;20444;-82
2023/06/29 17:14:41;;;;;;;43.90;30.27;;;;;;;-147.65;100.00;57646.63;10379408;28;20367;-83
2023/06/29 17:19:41;;;;;;;44.25;30.08;;;;;;;-147.65;100.00;57646.63;10432195;28;20037;-82
2023/06/29 17:24:42;;;;;;;44.53;29.45;;;;;;;-147.65;100.00;57646.63;10415657;28;20528;-83
2023/06/29 17:29:43;;;;;;;43.22;30.10;;;;;;;-147.65;100.00;57646.63;10399335;28;20149;-82
2023/06/29 17:34:44;;;;;;;42.93;31.47;;;;;;;-147.65;100.00;57646.63;10395568;28;20042;-81
2023/06/29 17:39:44;;;;;;;45.83;30.77;;;;;;;-147.65;100.00;57646.63;10382648;28;20065;-81
2023/06/29 17:44:46;;;;;;;51.08;29.63;;;;;;;-147.65;100.00;57646.63;10383929;28;20458;-84
2023/06/29 17:49:48;;;;;;;47.17;28.33;;;;;;;-147.65;100.00;57646.63;10370108;28;20496;-85
2023/06/29 17:54:49;;;;;;;54.03;32.47;;;;;;;-147.65;100.00;57646.63;10399107;28;20398;-85
2023/06/29 17:59:49;;;;;;;40.33;27.45;;;;;;;-147.65;100.00;57646.63;10393600;28;20042;-84
2023/06/29 18:04:50;;;;;;;50.92;31.95;;;;;;;-147.65;100.00;57646.63;10399222;28;20481;-84
2023/06/29 18:09:50;;;;;;;51.45;30.73;;;;;;;-147.65;100.00;57646.63;10396915;28;20052;-84
2023/06/29 18:14:51;;;;;;;52.40;31.98;;;;;;;-147.65;100.00;57646.63;10415688;28;20033;-84
2023/06/29 18:19:51;;;;;;;48.13;31.50;;;;;;;-147.65;100.00;57646.63;10425496;28;20056;-85
2023/06/29 18:24:52;;;;;;;49.90;32.10;;;;;;;-147.65;100.00;57646.63;10398977;28;20489;-83
2023/06/29 18:29:53;;;;;;;52.03;32.88;;;;;;;-147.65;100.00;57646.63;10400698;28;20124;-83
2023/06/29 18:34:54;;;;;;;63.17;35.90;;;;;;;-147.65;100.00;57646.63;10411151;28;20592;-88
2023/06/29 18:39:54;;;;;;;54.58;35.63;;;;;;;-147.65;100.00;57646.63;10398396;28;20049;-85
2023/06/29 18:44:55;;;;;;;57.35;36.08;;;;;;;-147.65;100.00;57646.63;10403010;28;20067;-80
2023/06/29 18:49:56;;;;;;;58.55;38.78;;;;;;;-147.65;100.00;57646.63;10399785;28;20076;-83
2023/06/29 18:54:57;;;;;;;62.83;38.77;;;;;;;-147.65;100.00;57646.63;10443439;28;20550;-85
2023/06/29 18:59:57;;;;;;;59.35;39.60;;;;;;;-147.65;100.00;57646.63;10406507;28;20187;-84
2023/06/29 19:05:00;;;;;;;56.97;36.33;;;;;;;-147.65;100.00;57646.63;10477599;28;20048;-85
2023/06/29 19:10:00;;;;;;;61.70;40.88;;;;;;;-147.65;100.00;57646.63;10411111;28;20033;-87
2023/06/29 19:15:01;;;;;;;66.28;41.15;;;;;;;-147.65;100.00;57646.63;10406297;28;20824;-88
2023/06/29 19:20:02;;;;;;;79.15;45.35;;;;;;;-147.65;100.00;57646.63;10403447;28;20036;-87
2023/06/29 19:25:03;;;;;;;77.60;43.40;;;;;;;-147.65;100.00;57646.63;10405144;28;20041;-90
2023/06/29 19:30:04;;;;;;;64.47;42.72;;;;;;;-147.65;100.00;57646.63;10395698;28;20092;-88
2023/06/29 19:35:05;;;;;;;76.63;47.95;;;;;;;-147.65;100.00;57646.63;10436158;28;20551;-89
2023/06/29 19:40:06;;;;;;;34.95;23.88;;;;;;;-147.65;100.00;57646.63;10416825;28;20128;-88
2023/06/29 19:45:07;;;;;;;26.67;16.40;;;;;;;-147.65;100.00;57646.63;10406587;28;20042;-89
2023/06/29 19:50:08;;;;;;;24.15;17.85;;;;;;;-147.65;100.00;57646.63;10406066;28;20497;-87
2023/06/29 19:55:09;;;;;;;23.42;13.38;;;;;;;-147.65;100.00;57646.63;10397428;28;20392;-90
2023/06/29 20:00:10;;;;;;;22.93;14.13;;;;;;;-147.65;100.00;57646.63;10435694;28;20040;-86
2023/06/29 20:05:11;;;;;;;24.92;17.45;;;;;;;-147.65;100.00;57646.63;10389148;28;20048;-86
2023/06/29 20:10:11;;;;;;;28.00;16.85;;;;;;;-147.65;100.00;57646.63;10405611;28;20041;-84
2023/06/29 20:15:12;;;;;;;19.80;13.82;;;;;;;-147.65;100.00;57646.63;10402712;28;20149;-87
2023/06/29 20:20:12;;;;;;;25.23;14.93;;;;;;;-147.65;100.00;57646.63;10404037;28;20045;-90
2023/06/29 20:25:13;;;;;;;17.23;13.10;;;;;;;-147.65;100.00;57646.63;10396867;28;20385;-89
2023/06/29 20:30:13;;;;;;;18.00;14.38;;;;;;;-147.65;100.00;57646.63;10407845;28;20164;-89
2023/06/29 20:35:14;;;;;;;19.08;13.77;;;;;;;-147.65;100.00;57646.63;10443652;28;20121;-89
2023/06/29 20:40:14;;;;;;;23.13;15.63;;;;;;;-147.65;100.00;57646.63;10402210;28;20049;-89
2023/06/29 20:45:15;;;;;;;19.38;14.50;;;;;;;-147.65;100.00;57646.63;10394508;28;20130;-88
2023/06/29 20:50:15;;;;;;;18.67;14.68;;;;;;;-147.65;100.00;57646.63;10403598;28;20048;-89
2023/06/29 20:55:16;;;;;;;26.95;15.45;;;;;;;-147.65;100.00;57646.63;10396343;28;20116;-88
2023/06/29 21:00:17;;;;;;;18.52;12.50;;;;;;;-147.65;100.00;57646.63;10404730;28;20067;-86
2023/06/29 21:05:17;;;;;;;17.35;12.73;;;;;;;-147.65;100.00;57646.63;10411368;28;20037;-87
2023/06/29 21:10:18;;;;;;;21.10;12.20;;;;;;;-147.65;100.00;57646.63;10405676;28;20046;-87
2023/06/29 21:15:19;;;;;;;9.68;7.10;;;;;;;-147.65;100.00;57646.63;10410316;28;20129;-87
2023/06/29 21:20:20;;;;;;;11.20;7.07;;;;;;;-147.65;100.00;57646.63;10408498;28;20041;-80
2023/06/29 21:25:21;;;;;;;16.13;7.90;;;;;;;-147.65;100.00;57646.63;10428646;28;20053;-80
2023/06/29 21:30:22;;;;;;;11.23;8.88;;;;;;;-147.65;100.00;57646.63;10399007;28;20063;-86
2023/06/29 21:35:22;;;;;;;11.02;8.25;;;;;;;-147.65;100.00;57646.63;10392691;28;20440;-88
2023/06/29 21:40:23;;;;;;;10.93;8.45;;;;;;;-147.65;100.00;57646.63;10383021;28;20644;-86
2023/06/29 21:45:26;;;;;;;13.15;9.05;;;;;;;-147.65;100.00;57646.63;10396335;28;20037;-88
2023/06/29 21:50:27;;;;;;;13.52;9.07;;;;;;;-147.65;100.00;57646.63;10399065;28;20042;-84
2023/06/29 21:55:27;;;;;;;12.95;8.82;;;;;;;-147.65;100.00;57646.63;10399981;28;20045;-85
2023/06/29 22:00:28;;;;;;;14.57;9.32;;;;;;;-147.65;100.00;57646.63;10398739;28;20030;-86